PILOTS ONLINE: 494    ATC ONLINE: 89

KHND - Henderson Executive Airport

Location

City Las Vegas
Country  United States
Latitude 35° 58' 22" N
Longitude 115° 8' 2" W
Elevation 2492 ft
Type Small Airport

Runways

17L/35R 5001 ft / 75 ft
17R/35L 6501 ft / 100 ft

Weather

METAR
2014/07/31 16:56
KHND 311656Z 00000KT 5SM HZ CLR 36/11 A3000 RMK AO2 T03550105 SLP124
TAF
2014/07/31 12:30
TAF KHND 311128Z 3112/0112 VRB05KT P6SM BKN250 
     FM311800 26006KT P6SM FEW110 BKN250 
     FM312300 23011KT P6SM SCT110 BKN250 
     FM010600 18007KT P6SM BKN250

Outbound flights

Inbound flights